createdAt,value
2022-09-24T00:04:32.684Z,11.76
2022-09-24T00:09:36.877Z,11.69
2022-09-24T00:14:41.022Z,11.67
2022-09-24T00:19:45.165Z,11.62
2022-09-24T00:24:49.349Z,11.63
2022-09-24T00:29:53.486Z,11.71
2022-09-24T00:34:57.689Z,11.75
2022-09-24T00:40:01.828Z,11.75
2022-09-24T00:45:06.001Z,11.75
2022-09-24T00:50:10.155Z,11.81
2022-09-24T00:55:14.305Z,11.79
2022-09-24T01:00:18.493Z,11.84
2022-09-24T01:05:22.657Z,11.85
2022-09-24T01:10:26.822Z,11.84
2022-09-24T01:15:30.953Z,11.83
2022-09-24T01:20:35.133Z,11.74
2022-09-24T01:25:39.263Z,11.69
2022-09-24T01:30:43.451Z,11.66
2022-09-24T01:35:47.584Z,11.69
2022-09-24T01:40:51.913Z,11.70
2022-09-24T01:51:00.080Z,11.77
2022-09-24T01:56:04.281Z,11.75
2022-09-24T02:01:08.549Z,11.80
2022-09-24T02:06:12.570Z,11.83
2022-09-24T02:11:16.724Z,11.83
2022-09-24T02:16:20.948Z,11.80
2022-09-24T02:21:25.039Z,11.79
2022-09-24T02:26:29.244Z,11.70
2022-09-24T02:31:33.457Z,11.68
2022-09-24T02:36:37.551Z,11.64
2022-09-24T02:41:41.706Z,11.59
2022-09-24T02:46:45.999Z,11.57
2022-09-24T02:51:50.042Z,11.62
2022-09-24T02:56:54.208Z,11.65
2022-09-24T03:01:58.495Z,11.62
2022-09-24T03:07:02.519Z,11.65
2022-09-24T03:12:06.679Z,11.71
2022-09-24T03:17:10.811Z,11.79
2022-09-24T03:22:14.995Z,11.82
2022-09-24T03:27:19.136Z,11.80
2022-09-24T03:32:23.291Z,11.83
2022-09-24T03:37:27.466Z,11.82
2022-09-24T03:42:31.642Z,11.83
2022-09-24T03:47:35.777Z,11.81
2022-09-24T03:52:39.935Z,11.80
2022-09-24T03:57:44.099Z,11.79
2022-09-24T04:02:48.335Z,11.76
2022-09-24T04:07:52.408Z,11.77
2022-09-24T04:12:54.689Z,11.77
2022-09-24T04:17:58.867Z,11.74
2022-09-24T04:23:03.020Z,11.70
2022-09-24T04:28:07.197Z,11.65
2022-09-24T04:33:11.347Z,11.63
2022-09-24T04:38:15.494Z,11.59
2022-09-24T04:43:19.645Z,11.56
2022-09-24T04:48:23.799Z,11.53
2022-09-24T04:53:28.017Z,11.49
2022-09-24T04:58:32.201Z,11.50
2022-09-24T05:03:36.290Z,11.51
2022-09-24T05:08:40.478Z,11.53
2022-09-24T05:13:44.636Z,11.51
2022-09-24T05:18:48.758Z,11.51
2022-09-24T05:23:52.948Z,11.51
2022-09-24T05:28:57.126Z,11.52
2022-09-24T05:34:01.283Z,11.51
2022-09-24T05:39:05.420Z,11.51
2022-09-24T05:44:09.579Z,11.51
2022-09-24T05:49:13.746Z,11.51
2022-09-24T05:54:17.922Z,11.53
2022-09-24T05:59:22.052Z,11.53
2022-09-24T06:04:26.207Z,11.55
2022-09-24T06:09:30.415Z,11.62
2022-09-24T06:14:34.536Z,11.67
2022-09-24T06:19:38.688Z,11.72
2022-09-24T06:24:42.875Z,11.78
2022-09-24T06:29:47.016Z,11.86
2022-09-24T06:34:54.441Z,11.94
2022-09-24T06:39:55.336Z,12.05
2022-09-24T06:44:59.531Z,12.10
2022-09-24T06:50:03.693Z,12.27
2022-09-24T06:55:07.815Z,12.41
2022-09-24T07:00:12.009Z,12.54
2022-09-24T07:05:16.172Z,12.63
2022-09-24T07:10:20.282Z,12.77
2022-09-24T07:15:24.471Z,12.90
2022-09-24T07:20:28.630Z,13.05
2022-09-24T07:25:32.769Z,13.21
2022-09-24T07:30:36.991Z,13.38
2022-09-24T07:35:41.109Z,13.70
2022-09-24T07:40:45.404Z,13.96
2022-09-24T07:45:49.423Z,14.22
2022-09-24T07:50:53.673Z,14.36
2022-09-24T07:55:57.789Z,14.44
2022-09-24T08:01:01.953Z,14.48
2022-09-24T08:06:06.085Z,14.45
2022-09-24T08:11:10.236Z,14.57
2022-09-24T08:16:14.449Z,14.75
2022-09-24T08:21:18.575Z,14.95
2022-09-24T08:26:22.747Z,15.09
2022-09-24T08:31:26.992Z,15.12
2022-09-24T08:36:31.039Z,15.25
2022-09-24T08:41:35.299Z,15.40
2022-09-24T08:46:37.576Z,15.59
2022-09-24T08:51:41.646Z,15.92
2022-09-24T08:56:45.802Z,16.14
2022-09-24T09:01:50.043Z,16.30
2022-09-24T09:06:54.095Z,16.41
2022-09-24T09:11:58.307Z,16.44
2022-09-24T09:17:02.612Z,16.54
2022-09-24T09:22:06.615Z,16.57
2022-09-24T09:27:10.769Z,16.52
2022-09-24T09:32:14.918Z,16.48
2022-09-24T09:37:24.920Z,16.60
2022-09-24T09:42:23.220Z,16.62
2022-09-24T09:47:27.373Z,16.63
2022-09-24T09:52:31.560Z,16.72
2022-09-24T09:57:35.717Z,16.73
2022-09-24T10:02:40.059Z,16.81
2022-09-24T10:07:44.022Z,16.93
2022-09-24T10:12:48.234Z,16.90
2022-09-24T10:17:52.354Z,17.10
2022-09-24T10:22:56.524Z,17.27
2022-09-24T10:28:00.673Z,17.27
2022-09-24T10:33:04.815Z,17.54
2022-09-24T10:38:08.987Z,17.55
2022-09-24T10:43:13.130Z,17.57
2022-09-24T10:48:17.320Z,17.59
2022-09-24T10:53:21.434Z,17.56
2022-09-24T10:58:25.627Z,17.64
2022-09-24T11:03:29.772Z,17.80
2022-09-24T11:08:33.939Z,17.93
2022-09-24T11:13:38.129Z,17.97
2022-09-24T11:23:46.411Z,17.91
2022-09-24T11:28:50.598Z,18.00
2022-09-24T11:33:54.763Z,18.03
2022-09-24T11:38:58.908Z,17.94
2022-09-24T11:44:03.031Z,17.84
2022-09-24T11:49:07.212Z,17.90
2022-09-24T11:54:11.417Z,17.81
2022-09-24T11:59:15.543Z,17.83
2022-09-24T12:04:19.693Z,17.73
2022-09-24T12:09:23.833Z,17.61
2022-09-24T12:14:27.992Z,17.63
2022-09-24T12:19:32.149Z,17.71
2022-09-24T12:24:36.350Z,17.65
2022-09-24T12:29:40.474Z,17.79
2022-09-24T12:34:44.688Z,17.68
2022-09-24T12:39:48.802Z,17.66
2022-09-24T12:44:52.961Z,17.56
2022-09-24T12:49:57.312Z,17.40
2022-09-24T12:55:01.304Z,17.36
2022-09-24T13:00:05.444Z,17.41
2022-09-24T13:05:09.629Z,17.37
2022-09-24T13:10:13.736Z,17.40
2022-09-24T13:15:17.944Z,17.30
2022-09-24T13:20:22.109Z,17.26
2022-09-24T13:25:26.236Z,17.10
2022-09-24T13:30:30.408Z,17.12
2022-09-24T13:35:34.580Z,17.10
2022-09-24T13:40:38.829Z,16.96
2022-09-24T13:45:42.889Z,16.95
2022-09-24T13:50:47.012Z,16.91
2022-09-24T13:55:51.186Z,16.77
2022-09-24T14:00:55.337Z,16.71
2022-09-24T14:05:59.517Z,16.61
2022-09-24T14:11:03.681Z,16.49
2022-09-24T14:16:05.981Z,16.31
2022-09-24T14:21:10.111Z,16.17
2022-09-24T14:27:16.474Z,16.03
2022-09-24T14:32:20.660Z,15.92
2022-09-24T14:37:24.796Z,15.87
2022-09-24T14:42:30.814Z,15.76
2022-09-24T14:47:33.121Z,15.67
2022-09-24T14:57:46.079Z,15.47
2022-09-24T15:02:45.583Z,15.47
2022-09-24T15:07:53.761Z,15.40
2022-09-24T15:12:53.896Z,15.42
2022-09-24T15:17:58.093Z,15.42
2022-09-24T15:23:02.258Z,15.45
2022-09-24T15:28:06.425Z,15.47
2022-09-24T15:33:10.571Z,15.35
2022-09-24T15:38:14.716Z,15.36
2022-09-24T15:43:18.870Z,15.31
2022-09-24T15:48:23.079Z,15.30
2022-09-24T15:53:27.192Z,15.28
2022-09-24T15:58:31.364Z,15.20
2022-09-24T16:03:35.542Z,15.12
2022-09-24T16:08:37.772Z,15.03
2022-09-24T16:13:41.963Z,15.01
2022-09-24T16:18:44.231Z,14.95
2022-09-24T16:23:48.386Z,14.90
2022-09-24T16:28:52.556Z,14.85
2022-09-24T16:33:56.692Z,14.77
2022-09-24T16:39:00.881Z,14.75
2022-09-24T16:44:05.015Z,14.68
2022-09-24T16:49:09.286Z,14.63
2022-09-24T16:54:13.371Z,14.56
2022-09-24T16:59:17.489Z,14.50
2022-09-24T17:04:22.653Z,14.37
2022-09-24T17:09:25.838Z,14.28
2022-09-24T17:14:31.999Z,14.18
2022-09-24T17:19:34.112Z,14.13
2022-09-24T17:24:38.320Z,14.05
2022-09-24T17:29:42.435Z,14.01
2022-09-24T17:34:46.637Z,13.94
2022-09-24T17:39:50.762Z,13.91
2022-09-24T17:44:54.957Z,13.90
2022-09-24T17:49:59.071Z,13.90
2022-09-24T17:55:03.291Z,13.90
2022-09-24T18:00:07.428Z,13.87
2022-09-24T18:05:09.710Z,13.80
2022-09-24T18:10:13.855Z,13.79
2022-09-24T18:15:20.012Z,13.74
2022-09-24T18:20:22.167Z,13.70
2022-09-24T18:25:26.318Z,13.62
2022-09-24T18:30:30.509Z,13.53
2022-09-24T18:35:34.638Z,13.50
2022-09-24T18:40:38.910Z,13.53
2022-09-24T18:45:42.949Z,13.57
2022-09-24T18:50:47.279Z,13.61
2022-09-24T18:55:51.280Z,13.62
2022-09-24T19:00:55.495Z,13.66
2022-09-24T19:05:59.599Z,13.68
2022-09-24T19:11:03.762Z,13.69
2022-09-24T19:16:08.001Z,13.64
2022-09-24T19:21:12.075Z,13.63
2022-09-24T19:26:16.253Z,13.58
2022-09-24T19:31:20.449Z,13.55
2022-09-24T19:36:24.574Z,13.50
2022-09-24T19:41:28.758Z,13.49
2022-09-24T19:46:33.036Z,13.46
2022-09-24T19:51:35.160Z,13.43
2022-09-24T19:56:39.345Z,13.43
2022-09-24T20:01:43.760Z,13.38
2022-09-24T20:06:47.630Z,13.34
2022-09-24T20:11:51.826Z,13.29
2022-09-24T20:16:55.988Z,13.29
2022-09-24T20:22:00.093Z,13.26
2022-09-24T20:27:04.278Z,13.25
2022-09-24T20:32:08.488Z,13.19
2022-09-24T20:37:12.627Z,13.13
2022-09-24T20:42:16.827Z,13.10
2022-09-24T20:47:20.940Z,13.07
2022-09-24T20:52:25.109Z,13.06
2022-09-24T20:57:29.244Z,13.05
2022-09-24T21:02:35.802Z,13.06
2022-09-24T21:07:37.590Z,13.05
2022-09-24T21:12:41.734Z,13.04
2022-09-24T21:18:05.117Z,12.97
2022-09-24T21:22:50.062Z,12.90
2022-09-24T21:27:54.201Z,12.87
2022-09-24T21:32:58.370Z,12.86
2022-09-24T21:38:00.693Z,12.86
2022-09-24T21:43:04.792Z,12.89
2022-09-24T21:48:07.059Z,12.92
2022-09-24T21:53:11.226Z,12.93
2022-09-24T21:58:13.493Z,12.91
2022-09-24T22:03:17.664Z,12.93
2022-09-24T22:08:21.844Z,12.96
2022-09-24T22:13:25.998Z,12.97
2022-09-24T22:18:30.149Z,12.98
2022-09-24T22:23:34.288Z,13.02
2022-09-24T22:28:38.461Z,13.03
2022-09-24T22:33:42.643Z,13.02
2022-09-24T22:38:46.780Z,13.05
2022-09-24T22:43:50.954Z,13.06
2022-09-24T22:48:55.119Z,13.05
2022-09-24T22:53:59.280Z,13.05
2022-09-24T22:59:03.439Z,13.04
2022-09-24T23:04:07.586Z,13.03
2022-09-24T23:09:11.783Z,13.01
2022-09-24T23:14:15.900Z,13.00
2022-09-24T23:19:20.073Z,13.00
2022-09-24T23:24:24.251Z,13.00
2022-09-24T23:29:28.407Z,13.01
2022-09-24T23:34:32.538Z,12.99
2022-09-24T23:39:36.743Z,13.00
2022-09-24T23:44:38.988Z,13.01
2022-09-24T23:49:43.128Z,13.01
2022-09-24T23:54:45.463Z,12.97
2022-09-24T23:59:49.590Z,12.95
